sensor_id;sensor_type;location;lat;lon;timestamp;P1;durP1;ratioP1;P2;durP2;ratioP2
22184;SDS011;11258;52.516;13.318;2023-01-10T00:00:24;3.23;;;1.83;;
22184;SDS011;11258;52.516;13.318;2023-01-10T00:02:51;3.57;;;2.37;;
22184;SDS011;11258;52.516;13.318;2023-01-10T00:05:18;3.80;;;2.07;;
22184;SDS011;11258;52.516;13.318;2023-01-10T00:07:44;3.90;;;2.20;;
22184;SDS011;11258;52.516;13.318;2023-01-10T00:10:10;4.93;;;2.67;;
22184;SDS011;11258;52.516;13.318;2023-01-10T00:12:36;2.73;;;1.77;;
22184;SDS011;11258;52.516;13.318;2023-01-10T00:15:20;5.20;;;2.20;;
22184;SDS011;11258;52.516;13.318;2023-01-10T00:17:46;2.47;;;2.17;;
22184;SDS011;11258;52.516;13.318;2023-01-10T00:20:12;4.53;;;2.27;;
22184;SDS011;11258;52.516;13.318;2023-01-10T00:22:38;4.93;;;2.30;;
22184;SDS011;11258;52.516;13.318;2023-01-10T00:25:04;3.40;;;2.17;;
22184;SDS011;11258;52.516;13.318;2023-01-10T00:27:30;2.67;;;2.10;;
22184;SDS011;11258;52.516;13.318;2023-01-10T00:29:55;2.73;;;1.80;;
22184;SDS011;11258;52.516;13.318;2023-01-10T00:32:25;2.60;;;2.03;;
22184;SDS011;11258;52.516;13.318;2023-01-10T00:34:50;4.80;;;2.13;;
22184;SDS011;11258;52.516;13.318;2023-01-10T00:37:16;3.50;;;2.57;;
22184;SDS011;11258;52.516;13.318;2023-01-10T00:39:42;7.50;;;2.40;;
22184;SDS011;11258;52.516;13.318;2023-01-10T00:42:08;9.40;;;3.07;;
22184;SDS011;11258;52.516;13.318;2023-01-10T00:44:54;3.80;;;2.50;;
22184;SDS011;11258;52.516;13.318;2023-01-10T00:47:19;2.70;;;2.20;;
22184;SDS011;11258;52.516;13.318;2023-01-10T00:49:45;4.17;;;2.33;;
22184;SDS011;11258;52.516;13.318;2023-01-10T00:52:11;5.00;;;2.70;;
22184;SDS011;11258;52.516;13.318;2023-01-10T00:54:36;4.90;;;3.03;;
22184;SDS011;11258;52.516;13.318;2023-01-10T00:57:02;3.67;;;2.20;;
22184;SDS011;11258;52.516;13.318;2023-01-10T00:59:28;3.30;;;2.37;;
22184;SDS011;11258;52.516;13.318;2023-01-10T01:01:53;2.77;;;2.33;;
22184;SDS011;11258;52.516;13.318;2023-01-10T01:04:19;4.00;;;2.37;;
22184;SDS011;11258;52.516;13.318;2023-01-10T01:06:45;4.97;;;3.27;;
22184;SDS011;11258;52.516;13.318;2023-01-10T01:09:12;2.97;;;1.80;;
22184;SDS011;11258;52.516;13.318;2023-01-10T01:11:38;4.43;;;2.20;;
22184;SDS011;11258;52.516;13.318;2023-01-10T01:14:04;4.33;;;3.00;;
22184;SDS011;11258;52.516;13.318;2023-01-10T01:16:30;3.60;;;2.53;;
22184;SDS011;11258;52.516;13.318;2023-01-10T01:18:56;4.97;;;2.20;;
22184;SDS011;11258;52.516;13.318;2023-01-10T01:21:22;5.23;;;2.67;;
22184;SDS011;11258;52.516;13.318;2023-01-10T01:23:52;5.07;;;2.70;;
22184;SDS011;11258;52.516;13.318;2023-01-10T01:26:21;3.20;;;2.47;;
22184;SDS011;11258;52.516;13.318;2023-01-10T01:28:47;4.60;;;2.50;;
22184;SDS011;11258;52.516;13.318;2023-01-10T01:31:13;4.63;;;2.30;;
22184;SDS011;11258;52.516;13.318;2023-01-10T01:33:38;3.53;;;2.20;;
22184;SDS011;11258;52.516;13.318;2023-01-10T01:36:08;3.13;;;2.20;;
22184;SDS011;11258;52.516;13.318;2023-01-10T01:38:36;4.20;;;2.47;;
22184;SDS011;11258;52.516;13.318;2023-01-10T01:41:02;4.03;;;2.77;;
22184;SDS011;11258;52.516;13.318;2023-01-10T01:43:29;3.77;;;2.40;;
22184;SDS011;11258;52.516;13.318;2023-01-10T01:45:57;3.77;;;2.50;;
22184;SDS011;11258;52.516;13.318;2023-01-10T01:48:34;4.33;;;2.00;;
22184;SDS011;11258;52.516;13.318;2023-01-10T01:51:11;4.40;;;2.50;;
22184;SDS011;11258;52.516;13.318;2023-01-10T01:56:15;3.07;;;2.10;;
22184;SDS011;11258;52.516;13.318;2023-01-10T01:58:46;3.63;;;2.63;;
22184;SDS011;11258;52.516;13.318;2023-01-10T02:01:17;4.13;;;2.70;;
22184;SDS011;11258;52.516;13.318;2023-01-10T02:03:44;7.13;;;3.07;;
22184;SDS011;11258;52.516;13.318;2023-01-10T02:06:15;4.97;;;2.50;;
22184;SDS011;11258;52.516;13.318;2023-01-10T02:08:43;5.00;;;3.07;;
22184;SDS011;11258;52.516;13.318;2023-01-10T02:11:14;4.30;;;3.00;;
22184;SDS011;11258;52.516;13.318;2023-01-10T02:13:40;5.07;;;3.40;;
22184;SDS011;11258;52.516;13.318;2023-01-10T02:16:08;6.90;;;2.90;;
22184;SDS011;11258;52.516;13.318;2023-01-10T02:18:34;5.80;;;2.80;;
22184;SDS011;11258;52.516;13.318;2023-01-10T02:21:07;8.67;;;3.33;;
22184;SDS011;11258;52.516;13.318;2023-01-10T02:24:15;3.30;;;2.27;;
22184;SDS011;11258;52.516;13.318;2023-01-10T02:27:11;7.33;;;3.17;;
22184;SDS011;11258;52.516;13.318;2023-01-10T02:35:29;2.87;;;1.80;;
22184;SDS011;11258;52.516;13.318;2023-01-10T02:43:52;3.27;;;2.20;;
22184;SDS011;11258;52.516;13.318;2023-01-10T02:46:40;3.97;;;2.67;;
22184;SDS011;11258;52.516;13.318;2023-01-10T02:49:08;4.10;;;2.40;;
22184;SDS011;11258;52.516;13.318;2023-01-10T02:51:34;4.33;;;2.60;;
22184;SDS011;11258;52.516;13.318;2023-01-10T02:54:10;4.47;;;2.50;;
22184;SDS011;11258;52.516;13.318;2023-01-10T03:10:27;4.13;;;2.57;;
22184;SDS011;11258;52.516;13.318;2023-01-10T03:13:16;6.03;;;2.97;;
22184;SDS011;11258;52.516;13.318;2023-01-10T03:15:52;5.90;;;3.37;;
22184;SDS011;11258;52.516;13.318;2023-01-10T03:18:22;5.63;;;2.80;;
22184;SDS011;11258;52.516;13.318;2023-01-10T03:20:52;4.67;;;3.40;;
22184;SDS011;11258;52.516;13.318;2023-01-10T03:23:21;7.30;;;3.50;;
22184;SDS011;11258;52.516;13.318;2023-01-10T03:25:49;5.60;;;2.97;;
22184;SDS011;11258;52.516;13.318;2023-01-10T03:28:25;5.73;;;3.50;;
22184;SDS011;11258;52.516;13.318;2023-01-10T03:31:07;7.07;;;3.20;;
22184;SDS011;11258;52.516;13.318;2023-01-10T03:33:38;8.10;;;3.33;;
22184;SDS011;11258;52.516;13.318;2023-01-10T03:36:27;7.93;;;3.40;;
22184;SDS011;11258;52.516;13.318;2023-01-10T03:39:33;7.53;;;3.83;;
22184;SDS011;11258;52.516;13.318;2023-01-10T03:42:47;6.43;;;3.23;;
22184;SDS011;11258;52.516;13.318;2023-01-10T03:45:22;5.60;;;3.43;;
22184;SDS011;11258;52.516;13.318;2023-01-10T03:47:53;6.00;;;3.53;;
22184;SDS011;11258;52.516;13.318;2023-01-10T03:50:25;6.00;;;3.83;;
22184;SDS011;11258;52.516;13.318;2023-01-10T03:52:52;8.50;;;3.97;;
22184;SDS011;11258;52.516;13.318;2023-01-10T03:55:19;4.17;;;2.97;;
22184;SDS011;11258;52.516;13.318;2023-01-10T03:57:48;6.20;;;3.70;;
22184;SDS011;11258;52.516;13.318;2023-01-10T04:00:14;6.07;;;3.83;;
22184;SDS011;11258;52.516;13.318;2023-01-10T04:02:40;6.07;;;3.63;;
22184;SDS011;11258;52.516;13.318;2023-01-10T04:05:07;10.17;;;4.30;;
22184;SDS011;11258;52.516;13.318;2023-01-10T04:07:33;6.57;;;3.63;;
22184;SDS011;11258;52.516;13.318;2023-01-10T04:09:58;10.07;;;4.70;;
22184;SDS011;11258;52.516;13.318;2023-01-10T04:12:24;7.73;;;4.27;;
22184;SDS011;11258;52.516;13.318;2023-01-10T04:14:50;8.00;;;4.63;;
22184;SDS011;11258;52.516;13.318;2023-01-10T04:17:16;13.23;;;4.50;;
22184;SDS011;11258;52.516;13.318;2023-01-10T04:19:42;10.93;;;4.90;;
22184;SDS011;11258;52.516;13.318;2023-01-10T04:22:09;9.60;;;4.17;;
22184;SDS011;11258;52.516;13.318;2023-01-10T04:24:35;13.03;;;5.47;;
22184;SDS011;11258;52.516;13.318;2023-01-10T04:27:01;14.80;;;5.20;;
22184;SDS011;11258;52.516;13.318;2023-01-10T04:29:27;8.43;;;4.60;;
22184;SDS011;11258;52.516;13.318;2023-01-10T04:31:52;10.07;;;5.60;;
22184;SDS011;11258;52.516;13.318;2023-01-10T04:34:18;9.43;;;4.77;;
22184;SDS011;11258;52.516;13.318;2023-01-10T04:36:44;9.47;;;5.30;;
22184;SDS011;11258;52.516;13.318;2023-01-10T04:39:10;13.80;;;5.10;;
22184;SDS011;11258;52.516;13.318;2023-01-10T04:41:36;15.00;;;5.13;;
22184;SDS011;11258;52.516;13.318;2023-01-10T04:44:02;9.27;;;5.40;;
22184;SDS011;11258;52.516;13.318;2023-01-10T04:46:28;11.67;;;5.20;;
22184;SDS011;11258;52.516;13.318;2023-01-10T04:48:54;11.73;;;5.60;;
22184;SDS011;11258;52.516;13.318;2023-01-10T04:51:20;9.67;;;4.93;;
22184;SDS011;11258;52.516;13.318;2023-01-10T04:53:46;9.37;;;4.93;;
22184;SDS011;11258;52.516;13.318;2023-01-10T04:56:16;8.00;;;5.00;;
22184;SDS011;11258;52.516;13.318;2023-01-10T04:58:43;8.00;;;4.93;;
22184;SDS011;11258;52.516;13.318;2023-01-10T05:01:26;11.85;;;5.82;;
22184;SDS011;11258;52.516;13.318;2023-01-10T05:03:53;14.23;;;5.10;;
22184;SDS011;11258;52.516;13.318;2023-01-10T05:06:20;10.13;;;5.53;;
22184;SDS011;11258;52.516;13.318;2023-01-10T05:08:47;14.83;;;5.60;;
22184;SDS011;11258;52.516;13.318;2023-01-10T05:11:12;10.67;;;5.47;;
22184;SDS011;11258;52.516;13.318;2023-01-10T05:13:38;9.57;;;5.60;;
22184;SDS011;11258;52.516;13.318;2023-01-10T05:16:04;14.07;;;5.57;;
22184;SDS011;11258;52.516;13.318;2023-01-10T05:18:30;14.93;;;5.53;;
22184;SDS011;11258;52.516;13.318;2023-01-10T05:20:59;11.23;;;5.07;;
22184;SDS011;11258;52.516;13.318;2023-01-10T05:23:26;11.17;;;5.23;;
22184;SDS011;11258;52.516;13.318;2023-01-10T05:25:52;11.67;;;6.07;;
22184;SDS011;11258;52.516;13.318;2023-01-10T05:28:18;11.13;;;5.73;;
22184;SDS011;11258;52.516;13.318;2023-01-10T05:30:44;17.43;;;6.30;;
22184;SDS011;11258;52.516;13.318;2023-01-10T05:33:09;12.30;;;5.87;;
22184;SDS011;11258;52.516;13.318;2023-01-10T05:35:35;17.23;;;5.97;;
22184;SDS011;11258;52.516;13.318;2023-01-10T05:38:00;12.57;;;5.53;;
22184;SDS011;11258;52.516;13.318;2023-01-10T05:40:26;14.73;;;5.80;;
22184;SDS011;11258;52.516;13.318;2023-01-10T05:42:52;11.27;;;5.40;;
22184;SDS011;11258;52.516;13.318;2023-01-10T05:45:17;17.13;;;6.27;;
22184;SDS011;11258;52.516;13.318;2023-01-10T05:47:43;14.63;;;6.27;;
22184;SDS011;11258;52.516;13.318;2023-01-10T05:50:09;9.20;;;5.90;;
22184;SDS011;11258;52.516;13.318;2023-01-10T05:52:35;18.03;;;6.27;;
22184;SDS011;11258;52.516;13.318;2023-01-10T05:55:01;13.07;;;6.20;;
22184;SDS011;11258;52.516;13.318;2023-01-10T05:57:26;15.50;;;6.33;;
22184;SDS011;11258;52.516;13.318;2023-01-10T05:59:52;11.17;;;6.20;;
22184;SDS011;11258;52.516;13.318;2023-01-10T06:02:18;13.83;;;6.67;;
22184;SDS011;11258;52.516;13.318;2023-01-10T06:04:43;17.80;;;6.93;;
22184;SDS011;11258;52.516;13.318;2023-01-10T06:07:09;14.43;;;6.93;;
22184;SDS011;11258;52.516;13.318;2023-01-10T06:09:34;10.43;;;5.97;;
22184;SDS011;11258;52.516;13.318;2023-01-10T06:12:00;15.70;;;6.67;;
22184;SDS011;11258;52.516;13.318;2023-01-10T06:14:26;13.77;;;7.53;;
22184;SDS011;11258;52.516;13.318;2023-01-10T06:16:51;11.97;;;5.67;;
22184;SDS011;11258;52.516;13.318;2023-01-10T06:19:17;13.73;;;5.60;;
22184;SDS011;11258;52.516;13.318;2023-01-10T06:21:42;14.47;;;5.73;;
22184;SDS011;11258;52.516;13.318;2023-01-10T06:24:08;15.90;;;5.83;;
22184;SDS011;11258;52.516;13.318;2023-01-10T06:26:34;12.77;;;6.47;;
22184;SDS011;11258;52.516;13.318;2023-01-10T06:29:00;13.07;;;5.80;;
22184;SDS011;11258;52.516;13.318;2023-01-10T06:31:25;9.70;;;5.77;;
22184;SDS011;11258;52.516;13.318;2023-01-10T06:33:51;15.33;;;6.37;;
22184;SDS011;11258;52.516;13.318;2023-01-10T06:36:17;13.50;;;5.90;;
22184;SDS011;11258;52.516;13.318;2023-01-10T06:38:43;13.10;;;5.80;;
22184;SDS011;11258;52.516;13.318;2023-01-10T06:41:08;14.93;;;5.47;;
22184;SDS011;11258;52.516;13.318;2023-01-10T06:43:40;15.67;;;6.40;;
22184;SDS011;11258;52.516;13.318;2023-01-10T06:46:10;11.93;;;5.67;;
22184;SDS011;11258;52.516;13.318;2023-01-10T06:48:37;18.37;;;6.57;;
22184;SDS011;11258;52.516;13.318;2023-01-10T06:51:04;13.13;;;5.37;;
22184;SDS011;11258;52.516;13.318;2023-01-10T06:53:30;11.00;;;5.80;;
22184;SDS011;11258;52.516;13.318;2023-01-10T06:55:56;13.03;;;6.43;;
22184;SDS011;11258;52.516;13.318;2023-01-10T06:58:22;16.50;;;6.73;;
22184;SDS011;11258;52.516;13.318;2023-01-10T07:00:48;16.93;;;6.63;;
22184;SDS011;11258;52.516;13.318;2023-01-10T07:03:14;14.00;;;6.83;;
22184;SDS011;11258;52.516;13.318;2023-01-10T07:05:40;14.67;;;6.77;;
22184;SDS011;11258;52.516;13.318;2023-01-10T07:08:05;14.03;;;6.17;;
22184;SDS011;11258;52.516;13.318;2023-01-10T07:10:31;12.40;;;6.77;;
22184;SDS011;11258;52.516;13.318;2023-01-10T07:12:57;14.67;;;7.10;;
22184;SDS011;11258;52.516;13.318;2023-01-10T07:15:24;16.70;;;7.77;;
22184;SDS011;11258;52.516;13.318;2023-01-10T07:17:51;15.30;;;7.20;;
22184;SDS011;11258;52.516;13.318;2023-01-10T07:20:17;16.60;;;6.50;;
22184;SDS011;11258;52.516;13.318;2023-01-10T07:22:43;20.33;;;7.10;;
22184;SDS011;11258;52.516;13.318;2023-01-10T07:25:08;14.10;;;7.53;;
22184;SDS011;11258;52.516;13.318;2023-01-10T07:27:34;18.10;;;6.60;;
22184;SDS011;11258;52.516;13.318;2023-01-10T07:30:00;17.67;;;7.53;;
22184;SDS011;11258;52.516;13.318;2023-01-10T07:32:26;18.27;;;7.33;;
22184;SDS011;11258;52.516;13.318;2023-01-10T07:34:52;19.87;;;7.57;;
22184;SDS011;11258;52.516;13.318;2023-01-10T07:37:17;17.50;;;7.67;;
22184;SDS011;11258;52.516;13.318;2023-01-10T07:39:43;14.87;;;7.90;;
22184;SDS011;11258;52.516;13.318;2023-01-10T07:42:09;16.97;;;7.83;;
22184;SDS011;11258;52.516;13.318;2023-01-10T07:44:35;20.20;;;7.80;;
22184;SDS011;11258;52.516;13.318;2023-01-10T07:47:00;13.07;;;7.33;;
22184;SDS011;11258;52.516;13.318;2023-01-10T07:49:26;17.53;;;7.70;;
22184;SDS011;11258;52.516;13.318;2023-01-10T07:51:52;16.13;;;7.80;;
22184;SDS011;11258;52.516;13.318;2023-01-10T07:54:17;13.07;;;7.27;;
22184;SDS011;11258;52.516;13.318;2023-01-10T07:56:43;14.27;;;7.23;;
22184;SDS011;11258;52.516;13.318;2023-01-10T07:59:11;16.03;;;8.03;;
22184;SDS011;11258;52.516;13.318;2023-01-10T08:01:37;14.40;;;7.33;;
22184;SDS011;11258;52.516;13.318;2023-01-10T08:04:03;11.17;;;6.83;;
22184;SDS011;11258;52.516;13.318;2023-01-10T08:06:29;12.83;;;7.67;;
22184;SDS011;11258;52.516;13.318;2023-01-10T08:08:55;16.30;;;7.70;;
22184;SDS011;11258;52.516;13.318;2023-01-10T08:11:20;14.73;;;7.70;;
22184;SDS011;11258;52.516;13.318;2023-01-10T08:13:46;14.27;;;7.33;;
22184;SDS011;11258;52.516;13.318;2023-01-10T08:16:12;15.30;;;7.53;;
22184;SDS011;11258;52.516;13.318;2023-01-10T08:18:39;17.33;;;8.07;;
22184;SDS011;11258;52.516;13.318;2023-01-10T08:21:07;14.87;;;8.03;;
22184;SDS011;11258;52.516;13.318;2023-01-10T08:23:33;19.87;;;8.43;;
22184;SDS011;11258;52.516;13.318;2023-01-10T08:25:59;15.60;;;7.83;;
22184;SDS011;11258;52.516;13.318;2023-01-10T08:28:25;16.30;;;7.33;;
22184;SDS011;11258;52.516;13.318;2023-01-10T08:30:51;14.07;;;7.53;;
22184;SDS011;11258;52.516;13.318;2023-01-10T08:33:20;21.67;;;7.77;;
22184;SDS011;11258;52.516;13.318;2023-01-10T08:35:51;18.97;;;7.97;;
22184;SDS011;11258;52.516;13.318;2023-01-10T08:38:17;11.77;;;6.83;;
22184;SDS011;11258;52.516;13.318;2023-01-10T08:40:42;16.63;;;6.90;;
22184;SDS011;11258;52.516;13.318;2023-01-10T08:43:09;14.67;;;7.03;;
22184;SDS011;11258;52.516;13.318;2023-01-10T08:45:36;17.57;;;7.60;;
22184;SDS011;11258;52.516;13.318;2023-01-10T08:48:03;13.00;;;7.00;;
22184;SDS011;11258;52.516;13.318;2023-01-10T08:50:29;19.80;;;6.80;;
22184;SDS011;11258;52.516;13.318;2023-01-10T08:52:56;15.53;;;7.13;;
22184;SDS011;11258;52.516;13.318;2023-01-10T08:55:23;13.47;;;7.53;;
22184;SDS011;11258;52.516;13.318;2023-01-10T08:57:49;15.60;;;7.37;;
22184;SDS011;11258;52.516;13.318;2023-01-10T09:00:15;16.67;;;7.53;;
22184;SDS011;11258;52.516;13.318;2023-01-10T09:02:40;15.20;;;7.50;;
22184;SDS011;11258;52.516;13.318;2023-01-10T09:05:06;16.63;;;7.40;;
22184;SDS011;11258;52.516;13.318;2023-01-10T09:07:32;16.53;;;7.17;;
22184;SDS011;11258;52.516;13.318;2023-01-10T09:09:58;13.90;;;6.60;;
22184;SDS011;11258;52.516;13.318;2023-01-10T09:12:23;10.53;;;6.43;;
22184;SDS011;11258;52.516;13.318;2023-01-10T09:15:08;10.50;;;6.67;;
22184;SDS011;11258;52.516;13.318;2023-01-10T09:17:34;11.57;;;6.17;;
22184;SDS011;11258;52.516;13.318;2023-01-10T09:19:59;10.77;;;6.17;;
22184;SDS011;11258;52.516;13.318;2023-01-10T09:22:30;12.00;;;6.43;;
22184;SDS011;11258;52.516;13.318;2023-01-10T09:24:55;13.87;;;7.33;;
22184;SDS011;11258;52.516;13.318;2023-01-10T09:27:21;13.10;;;6.43;;
22184;SDS011;11258;52.516;13.318;2023-01-10T09:29:46;11.73;;;6.23;;
22184;SDS011;11258;52.516;13.318;2023-01-10T09:32:12;11.63;;;6.97;;
22184;SDS011;11258;52.516;13.318;2023-01-10T09:34:38;11.53;;;6.40;;
22184;SDS011;11258;52.516;13.318;2023-01-10T09:37:03;12.13;;;6.30;;
22184;SDS011;11258;52.516;13.318;2023-01-10T09:39:29;13.23;;;7.00;;
22184;SDS011;11258;52.516;13.318;2023-01-10T09:42:04;14.37;;;5.63;;
22184;SDS011;11258;52.516;13.318;2023-01-10T09:47:39;12.50;;;6.47;;
22184;SDS011;11258;52.516;13.318;2023-01-10T09:50:14;15.50;;;6.40;;
22184;SDS011;11258;52.516;13.318;2023-01-10T09:52:57;12.27;;;6.00;;
22184;SDS011;11258;52.516;13.318;2023-01-10T09:55:33;14.43;;;6.07;;
22184;SDS011;11258;52.516;13.318;2023-01-10T09:58:06;13.33;;;6.17;;
22184;SDS011;11258;52.516;13.318;2023-01-10T10:03:13;16.37;;;6.97;;
22184;SDS011;11258;52.516;13.318;2023-01-10T10:06:01;11.33;;;6.90;;
22184;SDS011;11258;52.516;13.318;2023-01-10T10:08:27;12.70;;;6.50;;
22184;SDS011;11258;52.516;13.318;2023-01-10T10:13:46;12.03;;;6.27;;
22184;SDS011;11258;52.516;13.318;2023-01-10T10:32:46;14.37;;;5.50;;
22184;SDS011;11258;52.516;13.318;2023-01-10T10:35:26;12.83;;;5.80;;
22184;SDS011;11258;52.516;13.318;2023-01-10T10:37:54;13.77;;;6.17;;
22184;SDS011;11258;52.516;13.318;2023-01-10T10:40:32;17.40;;;5.90;;
22184;SDS011;11258;52.516;13.318;2023-01-10T10:43:12;14.33;;;5.47;;
22184;SDS011;11258;52.516;13.318;2023-01-10T10:45:55;17.93;;;5.10;;
22184;SDS011;11258;52.516;13.318;2023-01-10T10:48:26;14.80;;;5.47;;
22184;SDS011;11258;52.516;13.318;2023-01-10T10:51:11;13.00;;;4.37;;
22184;SDS011;11258;52.516;13.318;2023-01-10T10:53:43;12.67;;;4.50;;
22184;SDS011;11258;52.516;13.318;2023-01-10T10:56:12;12.67;;;5.37;;
22184;SDS011;11258;52.516;13.318;2023-01-10T10:58:42;14.57;;;4.70;;
22184;SDS011;11258;52.516;13.318;2023-01-10T11:01:11;11.57;;;5.23;;
22184;SDS011;11258;52.516;13.318;2023-01-10T11:03:43;16.00;;;6.03;;
22184;SDS011;11258;52.516;13.318;2023-01-10T11:06:14;12.93;;;5.57;;
22184;SDS011;11258;52.516;13.318;2023-01-10T11:08:42;14.73;;;5.53;;
22184;SDS011;11258;52.516;13.318;2023-01-10T11:14:00;15.73;;;6.23;;
22184;SDS011;11258;52.516;13.318;2023-01-10T11:16:29;8.63;;;5.47;;
22184;SDS011;11258;52.516;13.318;2023-01-10T11:19:10;12.13;;;5.63;;
22184;SDS011;11258;52.516;13.318;2023-01-10T11:24:31;10.00;;;4.73;;
22184;SDS011;11258;52.516;13.318;2023-01-10T11:27:34;8.47;;;4.70;;
22184;SDS011;11258;52.516;13.318;2023-01-10T11:30:18;12.50;;;5.23;;
22184;SDS011;11258;52.516;13.318;2023-01-10T11:32:56;11.37;;;4.50;;
22184;SDS011;11258;52.516;13.318;2023-01-10T11:35:29;14.17;;;4.67;;
22184;SDS011;11258;52.516;13.318;2023-01-10T11:38:00;14.00;;;5.07;;
22184;SDS011;11258;52.516;13.318;2023-01-10T11:40:27;12.33;;;4.70;;
22184;SDS011;11258;52.516;13.318;2023-01-10T11:42:54;10.27;;;4.30;;
22184;SDS011;11258;52.516;13.318;2023-01-10T11:45:23;11.30;;;4.77;;
22184;SDS011;11258;52.516;13.318;2023-01-10T11:47:57;11.63;;;4.73;;
22184;SDS011;11258;52.516;13.318;2023-01-10T11:50:25;13.10;;;4.93;;
22184;SDS011;11258;52.516;13.318;2023-01-10T11:52:53;13.80;;;4.13;;
22184;SDS011;11258;52.516;13.318;2023-01-10T11:55:21;12.50;;;3.83;;
22184;SDS011;11258;52.516;13.318;2023-01-10T11:57:58;14.50;;;3.90;;
22184;SDS011;11258;52.516;13.318;2023-01-10T12:00:35;14.27;;;4.17;;
22184;SDS011;11258;52.516;13.318;2023-01-10T12:03:14;16.80;;;4.63;;
22184;SDS011;11258;52.516;13.318;2023-01-10T12:08:34;9.60;;;4.27;;
22184;SDS011;11258;52.516;13.318;2023-01-10T12:11:06;14.50;;;3.17;;
22184;SDS011;11258;52.516;13.318;2023-01-10T12:13:51;12.23;;;3.93;;
22184;SDS011;11258;52.516;13.318;2023-01-10T12:16:56;12.30;;;4.33;;
22184;SDS011;11258;52.516;13.318;2023-01-10T12:19:22;13.87;;;4.57;;
22184;SDS011;11258;52.516;13.318;2023-01-10T12:21:47;10.87;;;3.93;;
22184;SDS011;11258;52.516;13.318;2023-01-10T12:24:27;11.43;;;4.07;;
22184;SDS011;11258;52.516;13.318;2023-01-10T12:27:04;12.93;;;4.13;;
22184;SDS011;11258;52.516;13.318;2023-01-10T12:29:35;11.80;;;3.60;;
22184;SDS011;11258;52.516;13.318;2023-01-10T12:32:05;16.50;;;3.93;;
22184;SDS011;11258;52.516;13.318;2023-01-10T12:34:39;13.97;;;3.57;;
22184;SDS011;11258;52.516;13.318;2023-01-10T12:37:13;13.97;;;4.20;;
22184;SDS011;11258;52.516;13.318;2023-01-10T12:39:48;12.73;;;4.10;;
22184;SDS011;11258;52.516;13.318;2023-01-10T12:45:27;9.20;;;3.20;;
22184;SDS011;11258;52.516;13.318;2023-01-10T12:50:46;14.17;;;3.80;;
22184;SDS011;11258;52.516;13.318;2023-01-10T12:56:10;15.57;;;3.77;;
22184;SDS011;11258;52.516;13.318;2023-01-10T12:58:42;11.20;;;3.10;;
22184;SDS011;11258;52.516;13.318;2023-01-10T13:01:15;13.53;;;3.23;;
22184;SDS011;11258;52.516;13.318;2023-01-10T13:04:05;6.37;;;2.90;;
22184;SDS011;11258;52.516;13.318;2023-01-10T13:06:36;10.67;;;3.33;;
22184;SDS011;11258;52.516;13.318;2023-01-10T13:09:22;8.43;;;3.20;;
22184;SDS011;11258;52.516;13.318;2023-01-10T13:14:32;9.87;;;2.73;;
22184;SDS011;11258;52.516;13.318;2023-01-10T13:17:34;10.23;;;4.33;;
22184;SDS011;11258;52.516;13.318;2023-01-10T13:22:44;9.67;;;2.60;;
22184;SDS011;11258;52.516;13.318;2023-01-10T13:25:25;9.77;;;3.17;;
22184;SDS011;11258;52.516;13.318;2023-01-10T13:28:18;11.50;;;3.40;;
22184;SDS011;11258;52.516;13.318;2023-01-10T13:30:51;8.73;;;3.10;;
22184;SDS011;11258;52.516;13.318;2023-01-10T13:35:49;12.13;;;3.77;;
22184;SDS011;11258;52.516;13.318;2023-01-10T13:38:17;12.37;;;4.47;;
22184;SDS011;11258;52.516;13.318;2023-01-10T13:46:36;10.53;;;3.40;;
22184;SDS011;11258;52.516;13.318;2023-01-10T13:51:36;12.87;;;3.10;;
22184;SDS011;11258;52.516;13.318;2023-01-10T13:54:04;8.03;;;3.30;;
22184;SDS011;11258;52.516;13.318;2023-01-10T13:56:52;11.83;;;3.80;;
22184;SDS011;11258;52.516;13.318;2023-01-10T14:02:37;10.60;;;3.10;;
22184;SDS011;11258;52.516;13.318;2023-01-10T14:05:18;11.30;;;3.33;;
22184;SDS011;11258;52.516;13.318;2023-01-10T14:07:43;16.00;;;5.57;;
22184;SDS011;11258;52.516;13.318;2023-01-10T14:10:19;19.17;;;5.13;;
22184;SDS011;11258;52.516;13.318;2023-01-10T14:15:28;12.70;;;5.07;;
22184;SDS011;11258;52.516;13.318;2023-01-10T14:18:05;8.20;;;3.20;;
22184;SDS011;11258;52.516;13.318;2023-01-10T14:20:41;10.00;;;3.50;;
22184;SDS011;11258;52.516;13.318;2023-01-10T14:25:51;14.03;;;3.63;;
22184;SDS011;11258;52.516;13.318;2023-01-10T14:31:01;11.87;;;3.90;;
22184;SDS011;11258;52.516;13.318;2023-01-10T14:33:33;11.13;;;3.87;;
22184;SDS011;11258;52.516;13.318;2023-01-10T14:36:01;11.93;;;3.87;;
22184;SDS011;11258;52.516;13.318;2023-01-10T14:38:34;12.73;;;4.57;;
22184;SDS011;11258;52.516;13.318;2023-01-10T14:41:02;20.63;;;5.50;;
22184;SDS011;11258;52.516;13.318;2023-01-10T14:44:06;17.93;;;5.60;;
22184;SDS011;11258;52.516;13.318;2023-01-10T14:46:51;10.20;;;4.53;;
22184;SDS011;11258;52.516;13.318;2023-01-10T14:51:46;11.17;;;4.80;;
22184;SDS011;11258;52.516;13.318;2023-01-10T14:54:14;14.90;;;4.60;;
22184;SDS011;11258;52.516;13.318;2023-01-10T14:56:49;12.07;;;4.57;;
22184;SDS011;11258;52.516;13.318;2023-01-10T15:01:48;12.80;;;4.37;;
22184;SDS011;11258;52.516;13.318;2023-01-10T15:04:16;17.00;;;5.50;;
22184;SDS011;11258;52.516;13.318;2023-01-10T15:06:50;10.67;;;3.83;;
22184;SDS011;11258;52.516;13.318;2023-01-10T15:09:18;10.53;;;4.20;;
22184;SDS011;11258;52.516;13.318;2023-01-10T15:11:44;9.37;;;4.37;;
22184;SDS011;11258;52.516;13.318;2023-01-10T15:14:12;8.13;;;3.53;;
22184;SDS011;11258;52.516;13.318;2023-01-10T15:16:42;10.43;;;4.47;;
22184;SDS011;11258;52.516;13.318;2023-01-10T15:19:13;8.70;;;3.70;;
22184;SDS011;11258;52.516;13.318;2023-01-10T15:21:42;13.53;;;3.90;;
22184;SDS011;11258;52.516;13.318;2023-01-10T15:24:29;9.90;;;3.90;;
22184;SDS011;11258;52.516;13.318;2023-01-10T15:26:58;14.17;;;3.80;;
22184;SDS011;11258;52.516;13.318;2023-01-10T15:29:26;11.10;;;4.50;;
22184;SDS011;11258;52.516;13.318;2023-01-10T15:31:53;10.33;;;4.07;;
22184;SDS011;11258;52.516;13.318;2023-01-10T15:34:31;11.13;;;3.53;;
22184;SDS011;11258;52.516;13.318;2023-01-10T15:36:58;12.07;;;4.07;;
22184;SDS011;11258;52.516;13.318;2023-01-10T15:39:29;15.77;;;4.13;;
22184;SDS011;11258;52.516;13.318;2023-01-10T15:42:02;15.83;;;4.57;;
22184;SDS011;11258;52.516;13.318;2023-01-10T15:44:33;6.90;;;3.83;;
22184;SDS011;11258;52.516;13.318;2023-01-10T15:46:59;17.47;;;4.30;;
22184;SDS011;11258;52.516;13.318;2023-01-10T15:49:25;11.73;;;4.03;;
22184;SDS011;11258;52.516;13.318;2023-01-10T15:51:50;9.40;;;3.87;;
22184;SDS011;11258;52.516;13.318;2023-01-10T15:57:43;8.53;;;3.17;;
22184;SDS011;11258;52.516;13.318;2023-01-10T15:59:56;9.40;;;3.50;;
22184;SDS011;11258;52.516;13.318;2023-01-10T16:02:24;8.13;;;3.50;;
22184;SDS011;11258;52.516;13.318;2023-01-10T16:04:55;14.80;;;4.10;;
22184;SDS011;11258;52.516;13.318;2023-01-10T16:07:32;7.57;;;3.33;;
22184;SDS011;11258;52.516;13.318;2023-01-10T16:10:04;12.27;;;3.70;;
22184;SDS011;11258;52.516;13.318;2023-01-10T16:12:38;11.97;;;3.13;;
22184;SDS011;11258;52.516;13.318;2023-01-10T16:15:25;10.17;;;3.57;;
22184;SDS011;11258;52.516;13.318;2023-01-10T16:17:56;7.40;;;3.97;;
22184;SDS011;11258;52.516;13.318;2023-01-10T16:20:24;9.03;;;3.77;;
22184;SDS011;11258;52.516;13.318;2023-01-10T16:22:56;8.60;;;3.77;;
22184;SDS011;11258;52.516;13.318;2023-01-10T16:25:27;11.63;;;4.07;;
22184;SDS011;11258;52.516;13.318;2023-01-10T16:28:00;7.97;;;3.33;;